createdAt,value
2023-10-20T00:01:20.371Z,93.20
2023-10-20T00:03:49.629Z,93.20
2023-10-20T00:06:18.904Z,93.10
2023-10-20T00:08:48.087Z,93.20
2023-10-20T00:11:17.488Z,93.10
2023-10-20T00:13:46.666Z,93.10
2023-10-20T00:16:25.134Z,93.10
2023-10-20T00:18:54.435Z,93.10
2023-10-20T00:21:25.242Z,93.10
2023-10-20T00:23:54.477Z,93.10
2023-10-20T00:26:23.807Z,93.10
2023-10-20T00:28:53.232Z,93.10
2023-10-20T00:31:24.951Z,93.10
2023-10-20T00:33:54.351Z,93.10
2023-10-20T00:36:23.584Z,93.20
2023-10-20T00:38:52.827Z,93.20
2023-10-20T00:41:25.059Z,93.20
2023-10-20T00:43:55.603Z,93.50
2023-10-20T00:46:26.552Z,93.20
2023-10-20T00:48:56.776Z,93.10
2023-10-20T00:51:27.297Z,93.10
2023-10-20T00:54:01.477Z,93.10
2023-10-20T00:56:33.573Z,93.10
2023-10-20T00:59:03.800Z,93.10
2023-10-20T01:01:34.955Z,93.10
2023-10-20T01:04:04.574Z,93.10
2023-10-20T01:06:34.117Z,93.10
2023-10-20T01:09:03.421Z,93.10
2023-10-20T01:11:32.736Z,93.10
2023-10-20T01:14:02.414Z,93.10
2023-10-20T01:16:31.727Z,93.10
2023-10-20T01:19:03.640Z,93.10
2023-10-20T01:21:33.119Z,93.10
2023-10-20T01:24:04.209Z,93.20
2023-10-20T01:26:34.135Z,93.10
2023-10-20T01:29:06.874Z,93.10
2023-10-20T01:31:36.855Z,93.10
2023-10-20T01:34:06.480Z,93.10
2023-10-20T01:36:36.573Z,93.10
2023-10-20T01:39:06.483Z,93.10
2023-10-20T01:41:35.719Z,93.20
2023-10-20T01:44:30.132Z,93.20
2023-10-20T01:47:07.790Z,93.20
2023-10-20T01:49:37.980Z,93.10
2023-10-20T01:52:09.024Z,93.20
2023-10-20T01:54:39.960Z,93.10
2023-10-20T01:57:10.357Z,93.20
2023-10-20T01:59:39.970Z,93.10
2023-10-20T02:02:10.233Z,93.20
2023-10-20T02:04:39.680Z,93.20
2023-10-20T02:07:08.884Z,93.20
2023-10-20T02:09:39.523Z,93.10
2023-10-20T02:12:10.913Z,93.10
2023-10-20T02:14:39.973Z,93.10
2023-10-20T02:17:09.761Z,93.10
2023-10-20T02:19:39.270Z,93.00
2023-10-20T02:22:08.599Z,93.00
2023-10-20T02:24:39.193Z,93.10
2023-10-20T02:27:08.464Z,93.10
2023-10-20T02:29:37.639Z,93.10
2023-10-20T02:32:07.310Z,93.10
2023-10-20T02:34:37.020Z,93.00
2023-10-20T02:37:06.306Z,93.10
2023-10-20T02:39:35.886Z,93.10
2023-10-20T02:42:06.657Z,93.10
2023-10-20T02:44:35.999Z,93.20
2023-10-20T02:47:05.600Z,93.20
2023-10-20T02:49:34.805Z,93.30
2023-10-20T02:52:04.347Z,93.20
2023-10-20T02:54:35.506Z,93.20
2023-10-20T02:57:07.607Z,93.20
2023-10-20T02:59:36.896Z,93.10
2023-10-20T03:02:06.292Z,93.20
2023-10-20T03:04:35.924Z,93.20
2023-10-20T03:07:05.283Z,93.20
2023-10-20T03:09:34.458Z,93.20
2023-10-20T03:12:05.227Z,93.20
2023-10-20T03:14:36.353Z,93.20
2023-10-20T03:17:05.930Z,93.20
2023-10-20T03:19:35.117Z,93.10
2023-10-20T03:22:04.464Z,93.10
2023-10-20T03:24:34.256Z,93.10
2023-10-20T03:27:05.238Z,93.10
2023-10-20T03:29:34.630Z,93.00
2023-10-20T03:32:04.418Z,93.00
2023-10-20T03:34:34.433Z,93.10
2023-10-20T03:37:03.804Z,93.10
2023-10-20T03:39:34.456Z,93.10
2023-10-20T03:42:07.871Z,93.10
2023-10-20T03:44:37.270Z,93.10
2023-10-20T03:47:07.078Z,93.10
2023-10-20T03:49:36.699Z,93.10
2023-10-20T03:52:08.006Z,93.00
2023-10-20T03:54:37.631Z,93.00
2023-10-20T03:57:08.471Z,93.00
2023-10-20T03:59:38.451Z,93.00
2023-10-20T04:02:07.880Z,93.00
2023-10-20T04:04:37.352Z,93.00
2023-10-20T04:07:08.359Z,93.00
2023-10-20T04:09:39.618Z,93.10
2023-10-20T04:12:10.324Z,93.00
2023-10-20T04:14:39.597Z,93.00
2023-10-20T04:17:08.819Z,93.10
2023-10-20T04:19:38.110Z,93.10
2023-10-20T04:22:13.997Z,93.00
2023-10-20T04:24:45.697Z,93.00
2023-10-20T04:27:23.974Z,93.00
2023-10-20T04:30:07.066Z,93.00
2023-10-20T04:32:53.876Z,93.00
2023-10-20T04:35:37.038Z,93.10
2023-10-20T04:38:23.825Z,93.00
2023-10-20T04:41:10.190Z,93.00
2023-10-20T04:43:43.365Z,93.00
2023-10-20T04:46:35.815Z,93.00
2023-10-20T04:49:22.930Z,93.00
2023-10-20T04:52:11.733Z,93.00
2023-10-20T04:54:59.689Z,93.10
2023-10-20T04:57:51.518Z,93.00
2023-10-20T05:00:36.656Z,93.00
2023-10-20T05:03:17.482Z,93.00
2023-10-20T05:05:54.785Z,93.00
2023-10-20T05:08:26.122Z,93.00
2023-10-20T05:10:56.623Z,93.00
2023-10-20T05:13:25.740Z,93.00
2023-10-20T05:15:56.312Z,93.00
2023-10-20T05:18:25.649Z,93.00
2023-10-20T05:20:56.412Z,93.00
2023-10-20T05:23:25.764Z,93.00
2023-10-20T05:25:54.975Z,93.10
2023-10-20T05:28:25.382Z,93.10
2023-10-20T05:30:56.030Z,93.10
2023-10-20T05:33:26.218Z,93.10
2023-10-20T05:35:55.753Z,93.10
2023-10-20T05:38:25.337Z,93.10
2023-10-20T05:41:00.152Z,93.10
2023-10-20T05:43:31.552Z,93.10
2023-10-20T05:46:03.787Z,93.20
2023-10-20T05:48:33.427Z,93.20
2023-10-20T05:51:04.079Z,93.20
2023-10-20T05:53:33.756Z,93.10
2023-10-20T05:56:02.958Z,93.10
2023-10-20T05:58:34.221Z,93.10
2023-10-20T06:01:10.678Z,93.10
2023-10-20T06:03:41.866Z,93.10
2023-10-20T06:06:11.629Z,93.10
2023-10-20T06:08:40.898Z,93.20
2023-10-20T06:11:10.293Z,93.20
2023-10-20T06:13:40.198Z,93.20
2023-10-20T06:16:12.444Z,93.20
2023-10-20T06:18:43.998Z,93.20
2023-10-20T06:21:15.402Z,93.20
2023-10-20T06:23:44.550Z,93.20
2023-10-20T06:26:14.180Z,93.30
2023-10-20T06:28:47.045Z,93.20
2023-10-20T06:31:38.384Z,93.20
2023-10-20T06:34:18.974Z,93.20
2023-10-20T06:36:50.017Z,93.20
2023-10-20T06:39:22.167Z,93.20
2023-10-20T06:41:51.506Z,93.20
2023-10-20T06:44:22.612Z,93.20
2023-10-20T06:46:54.006Z,93.20
2023-10-20T06:49:23.357Z,93.10
2023-10-20T06:51:52.556Z,93.10
2023-10-20T06:54:21.768Z,93.50
2023-10-20T06:56:51.052Z,93.20
2023-10-20T06:59:21.716Z,93.20
2023-10-20T07:01:53.734Z,93.50
2023-10-20T07:04:23.098Z,93.20
2023-10-20T07:06:53.229Z,93.20
2023-10-20T07:09:23.436Z,93.20
2023-10-20T07:11:53.612Z,93.20
2023-10-20T07:14:22.974Z,93.20
2023-10-20T07:16:53.658Z,93.20
2023-10-20T07:19:22.889Z,93.20
2023-10-20T07:21:55.302Z,93.20
2023-10-20T07:24:24.631Z,93.20
2023-10-20T07:26:53.921Z,93.20
2023-10-20T07:29:23.547Z,93.20
2023-10-20T07:31:55.094Z,93.20
2023-10-20T07:34:24.424Z,93.20
2023-10-20T07:36:53.700Z,93.20
2023-10-20T07:39:23.944Z,93.20
2023-10-20T07:41:53.942Z,93.20
2023-10-20T07:44:24.698Z,93.20
2023-10-20T07:46:55.420Z,93.20
2023-10-20T07:49:24.730Z,93.20
2023-10-20T07:51:54.479Z,93.20
2023-10-20T07:54:23.719Z,93.30
2023-10-20T07:56:52.974Z,93.30
2023-10-20T07:59:22.295Z,93.30
2023-10-20T08:01:51.650Z,93.40
2023-10-20T08:04:22.646Z,93.40
2023-10-20T08:06:52.292Z,93.50
2023-10-20T08:09:21.764Z,93.50
2023-10-20T08:11:52.417Z,93.50
2023-10-20T08:14:21.861Z,93.60
2023-10-20T08:16:51.574Z,93.60
2023-10-20T08:19:22.168Z,93.70
2023-10-20T08:21:51.421Z,93.70
2023-10-20T08:24:20.616Z,93.70
2023-10-20T08:26:51.016Z,93.70
2023-10-20T08:29:20.280Z,93.80
2023-10-20T08:31:49.497Z,94.20
2023-10-20T08:34:18.772Z,93.80
2023-10-20T08:36:50.126Z,93.80
2023-10-20T08:39:20.966Z,93.80
2023-10-20T08:41:51.123Z,93.80
2023-10-20T08:44:22.444Z,93.80
2023-10-20T08:46:53.390Z,93.90
2023-10-20T08:49:23.429Z,93.90
2023-10-20T08:51:55.641Z,93.90
2023-10-20T08:54:25.415Z,93.90
2023-10-20T08:56:55.016Z,94.00
2023-10-20T08:59:24.379Z,94.10
2023-10-20T09:01:54.192Z,94.20
2023-10-20T09:04:23.753Z,94.20
2023-10-20T09:06:55.299Z,94.30
2023-10-20T09:09:25.129Z,94.30
2023-10-20T09:11:54.863Z,94.30
2023-10-20T09:14:24.281Z,94.40
2023-10-20T09:16:56.421Z,94.40
2023-10-20T09:19:25.691Z,94.50
2023-10-20T09:21:59.094Z,94.60
2023-10-20T09:24:31.877Z,94.60
2023-10-20T09:27:01.342Z,94.60
2023-10-20T09:29:32.262Z,94.60
2023-10-20T09:32:05.276Z,94.60
2023-10-20T09:34:36.374Z,94.60
2023-10-20T09:37:07.935Z,94.60
2023-10-20T09:39:41.533Z,94.60
2023-10-20T09:42:21.436Z,94.60
2023-10-20T09:45:00.578Z,94.60
2023-10-20T09:47:31.383Z,94.60
2023-10-20T09:50:02.396Z,94.60
2023-10-20T09:52:33.922Z,94.60
2023-10-20T09:55:03.933Z,94.70
2023-10-20T09:57:33.451Z,94.70
2023-10-20T10:00:06.209Z,94.70
2023-10-20T10:02:35.694Z,94.80
2023-10-20T10:05:05.285Z,94.80
2023-10-20T10:07:36.944Z,94.90
2023-10-20T10:10:09.103Z,94.90
2023-10-20T10:12:38.618Z,94.90
2023-10-20T10:15:09.488Z,94.90
2023-10-20T10:17:47.054Z,94.90
2023-10-20T10:20:21.904Z,95.00
2023-10-20T10:23:01.636Z,94.90
2023-10-20T10:25:37.008Z,94.90
2023-10-20T10:28:16.682Z,94.90
2023-10-20T10:30:47.960Z,94.80
2023-10-20T10:33:23.020Z,94.80
2023-10-20T10:36:03.784Z,94.80
2023-10-20T10:38:44.489Z,94.80
2023-10-20T10:41:14.054Z,95.00
2023-10-20T10:43:43.702Z,95.00
2023-10-20T10:46:13.078Z,95.10
2023-10-20T10:48:42.459Z,95.20
2023-10-20T10:51:11.797Z,95.20
2023-10-20T10:53:44.868Z,95.30
2023-10-20T10:56:14.224Z,95.30
2023-10-20T10:58:43.513Z,95.40
2023-10-20T11:01:12.938Z,95.40
2023-10-20T11:03:42.463Z,95.50
2023-10-20T11:06:11.863Z,95.50
2023-10-20T11:08:46.254Z,95.60
2023-10-20T11:11:17.922Z,95.50
2023-10-20T11:13:47.579Z,95.60
2023-10-20T11:16:16.842Z,95.60
2023-10-20T11:18:47.936Z,95.70
2023-10-20T11:21:17.209Z,95.70
2023-10-20T11:23:51.795Z,95.60
2023-10-20T11:26:22.545Z,95.70
2023-10-20T11:28:52.637Z,95.70
2023-10-20T11:31:22.302Z,95.70
2023-10-20T11:33:51.603Z,95.70
2023-10-20T11:36:20.807Z,95.60
2023-10-20T11:38:51.536Z,95.60
2023-10-20T11:41:21.083Z,95.60
2023-10-20T11:43:50.724Z,95.70
2023-10-20T11:46:19.957Z,96.00
2023-10-20T11:48:49.895Z,95.70
2023-10-20T11:51:19.197Z,95.70
2023-10-20T11:53:48.523Z,95.70
2023-10-20T11:56:19.162Z,95.70
2023-10-20T11:58:48.409Z,95.70
2023-10-20T12:01:17.671Z,95.70
2023-10-20T12:03:47.183Z,95.70
2023-10-20T12:06:16.665Z,95.70
2023-10-20T12:08:45.912Z,95.70
2023-10-20T12:11:15.824Z,95.70
2023-10-20T12:13:49.446Z,95.70
2023-10-20T12:16:20.523Z,95.70
2023-10-20T12:18:49.803Z,95.80
2023-10-20T12:21:18.977Z,95.80
2023-10-20T12:23:48.226Z,95.80
2023-10-20T12:26:17.467Z,95.80
2023-10-20T12:28:48.612Z,95.70
2023-10-20T12:31:18.086Z,95.70
2023-10-20T12:33:47.782Z,95.80
2023-10-20T12:36:17.542Z,95.70
2023-10-20T12:38:46.954Z,95.80
2023-10-20T12:41:17.004Z,95.70
2023-10-20T12:43:48.926Z,95.70
2023-10-20T12:46:18.982Z,95.70
2023-10-20T12:48:48.323Z,95.70
2023-10-20T12:51:17.547Z,95.70
2023-10-20T12:53:49.707Z,95.70
2023-10-20T12:56:19.095Z,95.70
2023-10-20T12:58:49.759Z,95.70
2023-10-20T13:01:19.005Z,95.70
2023-10-20T13:03:50.079Z,95.70
2023-10-20T13:06:19.547Z,95.70
2023-10-20T13:08:48.923Z,95.70
2023-10-20T13:11:18.369Z,95.70
2023-10-20T13:13:47.616Z,95.80
2023-10-20T13:16:18.520Z,95.80
2023-10-20T13:18:48.778Z,95.70
2023-10-20T13:21:18.240Z,95.70
2023-10-20T13:23:47.570Z,95.80
2023-10-20T13:26:16.859Z,95.80
2023-10-20T13:28:46.035Z,95.80
2023-10-20T13:31:17.932Z,95.80
2023-10-20T13:33:49.789Z,95.80
2023-10-20T13:36:19.611Z,95.80
2023-10-20T13:38:49.875Z,95.80
2023-10-20T13:41:19.559Z,96.30
2023-10-20T13:43:50.176Z,95.90
2023-10-20T13:46:19.611Z,95.90
2023-10-20T13:48:50.238Z,95.90
2023-10-20T13:51:19.781Z,95.90
2023-10-20T13:53:49.097Z,95.90
2023-10-20T13:56:18.486Z,95.90
2023-10-20T13:58:47.984Z,95.90
2023-10-20T14:01:17.351Z,95.80
2023-10-20T14:03:46.818Z,95.90
2023-10-20T14:06:18.029Z,95.90
2023-10-20T14:08:47.548Z,95.80
2023-10-20T14:11:16.756Z,95.90
2023-10-20T14:13:46.341Z,95.90
2023-10-20T14:16:15.628Z,95.90
2023-10-20T14:18:44.883Z,95.90
2023-10-20T14:21:15.437Z,95.90
2023-10-20T14:23:46.077Z,95.90
2023-10-20T14:26:15.826Z,95.90
2023-10-20T14:28:45.027Z,96.00
2023-10-20T14:31:14.270Z,96.00
2023-10-20T14:33:43.497Z,96.00
2023-10-20T14:36:15.192Z,96.00
2023-10-20T14:38:46.011Z,96.00
2023-10-20T14:41:15.322Z,96.00
2023-10-20T14:43:44.485Z,96.10
2023-10-20T14:46:14.554Z,96.10
2023-10-20T14:48:44.719Z,96.20
2023-10-20T14:51:14.359Z,96.20
2023-10-20T14:53:45.188Z,96.20
2023-10-20T14:56:18.929Z,96.20
2023-10-20T14:58:48.213Z,96.20
2023-10-20T15:01:17.416Z,96.10
2023-10-20T15:03:48.241Z,96.10
2023-10-20T15:06:17.716Z,96.00
2023-10-20T15:08:47.618Z,96.10
2023-10-20T15:11:19.086Z,96.10
2023-10-20T15:13:48.384Z,96.10
2023-10-20T15:16:18.103Z,96.10
2023-10-20T15:18:47.790Z,96.00
2023-10-20T15:21:17.034Z,96.00
2023-10-20T15:23:46.340Z,96.10
2023-10-20T15:26:15.760Z,96.10
2023-10-20T15:28:48.896Z,96.10
2023-10-20T15:31:21.394Z,96.20
2023-10-20T15:33:57.845Z,96.10
2023-10-20T15:36:29.118Z,96.20
2023-10-20T15:38:58.493Z,96.50
2023-10-20T15:41:27.712Z,96.10
2023-10-20T15:43:58.384Z,96.10
2023-10-20T15:46:28.106Z,96.10
2023-10-20T15:48:57.589Z,96.10
2023-10-20T15:51:26.865Z,96.10
2023-10-20T15:53:56.136Z,96.10
2023-10-20T15:56:25.911Z,96.10
2023-10-20T15:58:55.216Z,96.10
2023-10-20T16:01:26.611Z,96.10
2023-10-20T16:03:55.940Z,96.00
2023-10-20T16:06:25.325Z,96.00
2023-10-20T16:08:54.871Z,96.10
2023-10-20T16:11:24.147Z,96.00
2023-10-20T16:13:53.405Z,96.00
2023-10-20T16:16:24.865Z,96.00
2023-10-20T16:18:55.969Z,96.00
2023-10-20T16:21:25.606Z,95.90
2023-10-20T16:23:56.134Z,96.00
2023-10-20T16:26:25.473Z,96.00
2023-10-20T16:28:54.626Z,96.00
2023-10-20T16:31:24.292Z,96.00
2023-10-20T16:33:55.692Z,95.90
2023-10-20T16:36:25.112Z,95.90
2023-10-20T16:38:54.631Z,95.90
2023-10-20T16:41:23.860Z,95.80
2023-10-20T16:43:53.070Z,95.80
2023-10-20T16:46:22.391Z,95.80
2023-10-20T16:48:52.607Z,95.80
2023-10-20T16:51:23.353Z,95.80
2023-10-20T16:53:52.620Z,95.90
2023-10-20T16:56:21.809Z,95.80
2023-10-20T16:58:51.030Z,95.80
2023-10-20T17:01:21.298Z,95.90
2023-10-20T17:03:50.787Z,95.80
2023-10-20T17:06:20.131Z,95.90
2023-10-20T17:08:51.269Z,95.80
2023-10-20T17:11:21.116Z,95.80
2023-10-20T17:13:50.343Z,95.80
2023-10-20T17:16:20.098Z,95.80
2023-10-20T17:18:49.506Z,95.80
2023-10-20T17:21:18.807Z,95.80
2023-10-20T17:23:48.128Z,95.80
2023-10-20T17:26:18.744Z,95.80
2023-10-20T17:28:48.718Z,95.80
2023-10-20T17:31:18.016Z,95.80
2023-10-20T17:33:47.262Z,95.80
2023-10-20T17:36:17.162Z,95.80
2023-10-20T17:38:46.500Z,95.80
2023-10-20T17:41:16.312Z,95.80
2023-10-20T17:43:46.909Z,95.80
2023-10-20T17:46:18.367Z,95.70
2023-10-20T17:48:48.523Z,95.80
2023-10-20T17:51:18.012Z,95.70
2023-10-20T17:53:47.457Z,95.80
2023-10-20T17:56:16.667Z,95.80
2023-10-20T17:58:47.292Z,95.70
2023-10-20T18:01:16.557Z,95.70
2023-10-20T18:03:45.863Z,95.70
2023-10-20T18:06:19.763Z,95.70
2023-10-20T18:08:53.156Z,95.70
2023-10-20T18:11:22.968Z,95.70
2023-10-20T18:13:55.639Z,95.80
2023-10-20T18:16:26.523Z,95.80
2023-10-20T18:18:55.869Z,95.70
2023-10-20T18:21:25.426Z,95.80
2023-10-20T18:23:58.802Z,95.70
2023-10-20T18:26:28.111Z,95.70
2023-10-20T18:28:58.790Z,95.70
2023-10-20T18:31:28.078Z,95.80
2023-10-20T18:33:59.438Z,95.80
2023-10-20T18:36:28.629Z,95.70
2023-10-20T18:38:57.773Z,95.80
2023-10-20T18:41:28.459Z,95.70
2023-10-20T18:43:59.145Z,95.70
2023-10-20T18:46:28.916Z,95.70
2023-10-20T18:48:58.074Z,95.80
2023-10-20T18:51:27.262Z,95.80
2023-10-20T18:53:57.154Z,95.90
2023-10-20T18:56:26.776Z,95.90
2023-10-20T18:58:56.120Z,95.90
2023-10-20T19:01:26.818Z,95.90
2023-10-20T19:03:56.569Z,95.90
2023-10-20T19:06:26.458Z,95.90
2023-10-20T19:08:55.799Z,95.80
2023-10-20T19:11:24.988Z,95.80
2023-10-20T19:13:54.247Z,95.80
2023-10-20T19:16:23.556Z,95.90
2023-10-20T19:18:54.391Z,95.70
2023-10-20T19:21:23.721Z,95.70
2023-10-20T19:23:52.946Z,95.70
2023-10-20T19:26:22.304Z,95.70
2023-10-20T19:28:52.384Z,95.60
2023-10-20T19:31:21.704Z,95.60
2023-10-20T19:33:51.754Z,95.50
2023-10-20T19:36:22.585Z,95.40
2023-10-20T19:38:51.901Z,95.30
2023-10-20T19:41:21.186Z,95.30
2023-10-20T19:43:50.857Z,95.20
2023-10-20T19:46:20.082Z,95.20
2023-10-20T19:48:49.391Z,95.10
2023-10-20T19:51:18.606Z,95.10
2023-10-20T19:53:49.424Z,95.00
2023-10-20T19:56:19.240Z,94.90
2023-10-20T19:58:49.682Z,94.90
2023-10-20T20:01:20.867Z,94.90
2023-10-20T20:03:51.120Z,94.90
2023-10-20T20:06:21.009Z,94.80
2023-10-20T20:08:52.063Z,94.80
2023-10-20T20:11:21.515Z,94.80
2023-10-20T20:13:51.427Z,94.70
2023-10-20T20:16:23.534Z,94.60
2023-10-20T20:18:52.924Z,94.60
2023-10-20T20:21:22.256Z,94.50
2023-10-20T20:23:52.983Z,94.40
2023-10-20T20:26:22.641Z,94.30
2023-10-20T20:28:52.083Z,94.30
2023-10-20T20:31:21.600Z,94.20
2023-10-20T20:33:50.992Z,94.20
2023-10-20T20:36:20.414Z,94.20
2023-10-20T20:38:49.696Z,94.20
2023-10-20T20:41:20.639Z,94.20
2023-10-20T20:43:50.085Z,94.10
2023-10-20T20:46:19.423Z,94.10
2023-10-20T20:48:48.665Z,94.00
2023-10-20T20:51:17.992Z,94.00
2023-10-20T20:53:47.817Z,94.00
2023-10-20T20:56:17.107Z,94.00
2023-10-20T20:58:47.888Z,94.00
2023-10-20T21:01:17.362Z,94.00
2023-10-20T21:03:46.703Z,94.00
2023-10-20T21:06:16.235Z,93.90
2023-10-20T21:08:47.823Z,93.90
2023-10-20T21:11:17.192Z,93.80
2023-10-20T21:13:48.031Z,93.90
2023-10-20T21:16:17.490Z,93.80
2023-10-20T21:18:47.060Z,93.80
2023-10-20T21:21:17.226Z,93.80
2023-10-20T21:23:47.503Z,93.80
2023-10-20T21:26:16.780Z,93.80
2023-10-20T21:28:47.485Z,93.80
2023-10-20T21:31:16.744Z,93.80
2023-10-20T21:33:45.921Z,93.70
2023-10-20T21:36:16.571Z,93.70
2023-10-20T21:38:45.893Z,93.70
2023-10-20T21:41:15.093Z,93.70
2023-10-20T21:43:44.400Z,93.70
2023-10-20T21:46:15.537Z,93.70
2023-10-20T21:48:44.869Z,93.60
2023-10-20T21:51:14.221Z,93.60
2023-10-20T21:53:43.447Z,93.60
2023-10-20T21:56:12.774Z,93.50
2023-10-20T21:58:42.618Z,93.50
2023-10-20T22:01:12.344Z,93.40
2023-10-20T22:03:43.824Z,93.50
2023-10-20T22:06:13.297Z,93.40
2023-10-20T22:08:42.509Z,93.40
2023-10-20T22:11:11.879Z,93.40
2023-10-20T22:13:41.040Z,93.40
2023-10-20T22:16:10.768Z,93.50
2023-10-20T22:18:40.102Z,93.60
2023-10-20T22:21:10.831Z,93.60
2023-10-20T22:23:40.039Z,93.60
2023-10-20T22:26:09.264Z,93.60
2023-10-20T22:28:38.454Z,93.60
2023-10-20T22:31:07.744Z,93.60
2023-10-20T22:33:37.049Z,93.60
2023-10-20T22:36:06.826Z,93.60
2023-10-20T22:38:37.584Z,93.70
2023-10-20T22:41:08.395Z,93.70
2023-10-20T22:43:37.655Z,93.70
2023-10-20T22:46:06.863Z,93.70
2023-10-20T22:48:36.190Z,93.60
2023-10-20T22:51:05.486Z,93.60
2023-10-20T22:53:36.163Z,93.50
2023-10-20T22:56:06.172Z,93.60
2023-10-20T22:58:35.401Z,93.60
2023-10-20T23:01:05.672Z,93.50
2023-10-20T23:03:36.023Z,93.50
2023-10-20T23:06:05.532Z,93.50
2023-10-20T23:08:36.195Z,93.40
2023-10-20T23:11:06.062Z,93.40
2023-10-20T23:13:35.340Z,93.40
2023-10-20T23:16:04.876Z,93.40
2023-10-20T23:18:34.197Z,93.40
2023-10-20T23:21:03.472Z,93.40
2023-10-20T23:23:32.787Z,93.30
2023-10-20T23:26:03.352Z,93.40
2023-10-20T23:28:32.513Z,93.30
2023-10-20T23:31:01.755Z,93.20
2023-10-20T23:33:31.180Z,93.20
2023-10-20T23:36:00.725Z,93.10
2023-10-20T23:38:30.004Z,93.10
2023-10-20T23:41:00.100Z,93.10
2023-10-20T23:43:30.940Z,93.10
2023-10-20T23:46:00.250Z,93.00
2023-10-20T23:48:29.551Z,93.00
2023-10-20T23:50:58.833Z,92.90
2023-10-20T23:53:28.772Z,92.90
2023-10-20T23:55:58.041Z,92.90
2023-10-20T23:58:27.206Z,92.90
